Terminal Aerodrome Forecast
Issued by NWS Wichita, KS

Home | Current Version | Previous Version | Graphics & Text | Print | Product List | Glossary On
Versions: 1 2 3 4 5 6 7 8 9 10 11 12 13 14 15 16 17 18
000
FTUS43 KICT 300500
TAFICT
TAF
KICT 300520Z 3006/3106 11009KT P6SM SCT070
     FM300800 12010KT P6SM VCSH SCT040 OVC070
     FM301000 13007KT P6SM SHRA SCT015 OVC025
     FM301500 13007KT 5SM SHRA BR VCTS SCT008 OVC015CB
     FM310100 VRB05KT P6SM VCSH SCT020 BKN050
     FM310500 01004KT P6SM SCT020 BKN100=

USA.gov is the U.S. government's official web portal to all federal, state and local government web resources and services.